createdAt,value
2023-03-01T00:00:34.049Z,3.90
2023-03-01T00:03:25.796Z,3.90
2023-03-01T00:06:17.764Z,3.90
2023-03-01T00:09:09.631Z,3.90
2023-03-01T00:12:10.543Z,3.90
2023-03-01T00:15:02.282Z,3.90
2023-03-01T00:17:56.340Z,3.90
2023-03-01T00:20:53.950Z,3.90
2023-03-01T00:26:40.409Z,3.90
2023-03-01T00:29:34.113Z,3.90
2023-03-01T00:32:26.986Z,3.90
2023-03-01T00:35:27.480Z,4.00
2023-03-01T00:38:18.394Z,4.00
2023-03-01T00:41:14.144Z,4.00
2023-03-01T00:44:06.303Z,4.00
2023-03-01T00:46:59.643Z,4.00
2023-03-01T00:49:51.079Z,4.10
2023-03-01T00:52:42.608Z,4.10
2023-03-01T00:55:34.007Z,4.10
2023-03-01T00:58:25.543Z,4.10
2023-03-01T01:01:20.348Z,4.10
2023-03-01T01:06:53.602Z,4.10
2023-03-01T01:09:45.389Z,4.10
2023-03-01T01:12:36.743Z,4.20
2023-03-01T01:15:28.436Z,4.10
2023-03-01T01:18:19.922Z,4.10
2023-03-01T01:21:13.458Z,4.40
2023-03-01T01:24:07.196Z,4.40
2023-03-01T01:26:58.807Z,4.30
2023-03-01T01:29:50.046Z,4.20
2023-03-01T01:32:41.627Z,4.20
2023-03-01T01:35:33.504Z,4.20
2023-03-01T01:41:08.598Z,4.30
2023-03-01T01:44:22.430Z,4.30
2023-03-01T01:47:25.729Z,4.40
2023-03-01T01:50:21.015Z,4.50
2023-03-01T01:53:27.513Z,4.50
2023-03-01T01:56:21.311Z,4.40
2023-03-01T01:59:14.440Z,4.30
2023-03-01T02:02:08.288Z,4.30
2023-03-01T02:05:04.900Z,4.30
2023-03-01T02:07:57.226Z,4.30
2023-03-01T02:10:50.541Z,4.30
2023-03-01T02:13:45.870Z,4.30
2023-03-01T02:16:37.546Z,4.30
2023-03-01T02:22:24.101Z,4.30
2023-03-01T02:25:25.243Z,4.30
2023-03-01T02:28:34.602Z,4.40
2023-03-01T02:31:46.179Z,4.30
2023-03-01T02:34:37.638Z,4.30
2023-03-01T02:37:30.372Z,4.30
2023-03-01T02:40:22.804Z,4.30
2023-03-01T02:43:16.958Z,4.30
2023-03-01T02:46:11.861Z,4.30
2023-03-01T02:49:03.672Z,4.30
2023-03-01T02:52:06.494Z,4.30
2023-03-01T02:55:14.729Z,4.30
2023-03-01T02:58:05.559Z,4.20
2023-03-01T03:01:00.807Z,4.20
2023-03-01T03:03:55.034Z,4.20
2023-03-01T03:06:56.264Z,4.20
2023-03-01T03:09:47.917Z,4.20
2023-03-01T03:12:39.560Z,4.10
2023-03-01T03:18:15.385Z,4.10
2023-03-01T03:21:08.868Z,4.10
2023-03-01T03:24:00.358Z,4.10
2023-03-01T03:26:52.164Z,4.10
2023-03-01T03:29:43.026Z,4.10
2023-03-01T03:32:34.687Z,4.10
2023-03-01T03:35:30.362Z,4.10
2023-03-01T03:38:23.322Z,4.20
2023-03-01T03:41:15.144Z,4.20
2023-03-01T03:44:06.654Z,4.20
2023-03-01T03:46:58.354Z,4.20
2023-03-01T03:49:49.961Z,4.20
2023-03-01T03:52:41.275Z,4.20
2023-03-01T03:55:40.369Z,4.20
2023-03-01T03:58:32.200Z,4.20
2023-03-01T04:01:24.445Z,4.20
2023-03-01T04:04:17.164Z,4.20
2023-03-01T04:09:50.488Z,4.20
2023-03-01T04:12:43.684Z,4.10
2023-03-01T04:15:36.069Z,4.10
2023-03-01T04:18:27.763Z,4.20
2023-03-01T04:21:21.079Z,4.20
2023-03-01T04:24:13.742Z,4.20
2023-03-01T04:27:05.707Z,4.20
2023-03-01T04:30:00.610Z,4.20
2023-03-01T04:32:52.161Z,4.20
2023-03-01T04:35:43.750Z,4.20
2023-03-01T04:38:35.287Z,4.10
2023-03-01T04:41:28.046Z,4.10
2023-03-01T04:44:21.183Z,4.10
2023-03-01T04:47:12.615Z,4.10
2023-03-01T04:50:05.057Z,4.10
2023-03-01T04:56:08.505Z,4.20
2023-03-01T04:59:01.498Z,4.10
2023-03-01T05:01:53.081Z,4.20
2023-03-01T05:04:44.723Z,4.20
2023-03-01T05:07:35.970Z,4.30
2023-03-01T05:10:30.139Z,4.20
2023-03-01T05:13:23.052Z,4.10
2023-03-01T05:16:14.649Z,4.10
2023-03-01T05:19:08.909Z,4.10
2023-03-01T05:22:06.223Z,4.10
2023-03-01T05:24:57.702Z,4.10
2023-03-01T05:27:49.350Z,4.10
2023-03-01T05:30:41.042Z,4.10
2023-03-01T05:33:32.211Z,4.20
2023-03-01T05:36:23.623Z,4.20
2023-03-01T05:39:14.822Z,4.10
2023-03-01T05:42:06.446Z,4.10
2023-03-01T05:44:57.861Z,4.10
2023-03-01T05:47:51.246Z,4.10
2023-03-01T05:50:44.703Z,4.10
2023-03-01T05:53:36.955Z,4.10
2023-03-01T05:56:30.752Z,4.10
2023-03-01T05:59:27.330Z,4.10
2023-03-01T06:02:19.709Z,4.10
2023-03-01T06:05:13.613Z,4.10
2023-03-01T06:08:05.634Z,4.00
2023-03-01T06:10:57.110Z,4.00
2023-03-01T06:13:49.305Z,3.90
2023-03-01T06:16:40.938Z,3.90
2023-03-01T06:19:33.375Z,3.90
2023-03-01T06:22:24.668Z,4.00
2023-03-01T06:25:18.442Z,4.00
2023-03-01T06:28:10.185Z,4.00
2023-03-01T06:31:01.811Z,4.00
2023-03-01T06:33:53.225Z,4.00
2023-03-01T06:36:44.734Z,4.00
2023-03-01T06:39:36.554Z,4.00
2023-03-01T06:42:27.877Z,4.10
2023-03-01T06:45:20.521Z,4.00
2023-03-01T06:48:12.164Z,4.00
2023-03-01T06:51:03.949Z,3.90
2023-03-01T06:54:01.563Z,4.10
2023-03-01T06:56:55.514Z,4.10
2023-03-01T06:59:46.905Z,4.10
2023-03-01T07:02:39.771Z,4.00
2023-03-01T07:05:31.571Z,4.00
2023-03-01T07:08:23.046Z,4.00
2023-03-01T07:11:15.225Z,4.00
2023-03-01T07:14:09.372Z,4.00
2023-03-01T07:17:01.131Z,3.80
2023-03-01T07:19:52.462Z,3.60
2023-03-01T07:22:45.258Z,3.70
2023-03-01T07:25:36.914Z,3.60
2023-03-01T07:28:28.814Z,3.60
2023-03-01T07:31:20.442Z,3.60
2023-03-01T07:34:12.823Z,3.70
2023-03-01T07:37:04.413Z,3.60
2023-03-01T07:39:55.891Z,3.40
2023-03-01T07:42:47.914Z,3.40
2023-03-01T07:45:39.700Z,3.30
2023-03-01T07:48:31.615Z,3.40
2023-03-01T07:51:23.647Z,3.40
2023-03-01T07:54:15.352Z,3.60
2023-03-01T07:57:09.463Z,3.60
2023-03-01T08:00:01.167Z,3.50
2023-03-01T08:02:54.363Z,3.40
2023-03-01T08:05:59.158Z,3.40
2023-03-01T08:08:51.150Z,3.30
2023-03-01T08:11:42.811Z,3.40
2023-03-01T08:14:35.363Z,3.50
2023-03-01T08:17:27.324Z,3.50
2023-03-01T08:20:20.819Z,3.40
2023-03-01T08:23:12.808Z,3.50
2023-03-01T08:26:13.970Z,3.50
2023-03-01T08:29:06.437Z,3.50
2023-03-01T08:31:58.274Z,3.60
2023-03-01T08:34:51.193Z,3.70
2023-03-01T08:37:43.078Z,3.80
2023-03-01T08:40:34.781Z,3.90
2023-03-01T08:43:26.522Z,4.00
2023-03-01T08:46:18.742Z,4.00
2023-03-01T08:49:12.875Z,4.00
2023-03-01T08:52:06.406Z,3.90
2023-03-01T08:54:58.812Z,3.80
2023-03-01T08:57:51.538Z,3.80
2023-03-01T09:00:43.962Z,3.90
2023-03-01T09:03:37.240Z,4.00
2023-03-01T09:06:29.334Z,4.10
2023-03-01T09:09:22.932Z,4.30
2023-03-01T09:12:14.245Z,4.40
2023-03-01T09:15:07.859Z,4.50
2023-03-01T09:18:02.187Z,4.50
2023-03-01T09:20:56.135Z,4.50
2023-03-01T09:23:49.668Z,4.50
2023-03-01T09:26:41.219Z,4.60
2023-03-01T09:32:18.357Z,4.80
2023-03-01T09:35:11.341Z,4.90
2023-03-01T09:38:03.122Z,4.90
2023-03-01T09:40:54.641Z,4.90
2023-03-01T09:43:52.026Z,4.90
2023-03-01T09:46:46.764Z,5.00
2023-03-01T09:49:40.772Z,5.20
2023-03-01T09:52:38.704Z,5.30
2023-03-01T09:55:35.175Z,5.40
2023-03-01T09:58:41.939Z,5.60
2023-03-01T10:01:40.050Z,5.60
2023-03-01T10:04:43.163Z,5.50
2023-03-01T10:07:41.019Z,5.60
2023-03-01T10:10:36.421Z,5.60
2023-03-01T10:13:40.574Z,5.70
2023-03-01T10:16:37.854Z,5.80
2023-03-01T10:19:32.833Z,5.80
2023-03-01T10:22:26.978Z,5.90
2023-03-01T10:25:36.077Z,6.00
2023-03-01T10:28:31.077Z,6.20
2023-03-01T10:31:27.568Z,6.60
2023-03-01T10:34:21.547Z,6.80
2023-03-01T10:37:20.482Z,7.00
2023-03-01T10:40:15.188Z,6.80
2023-03-01T10:43:09.282Z,6.70
2023-03-01T10:46:00.685Z,6.80
2023-03-01T10:49:08.922Z,7.00
2023-03-01T10:52:03.598Z,7.00
2023-03-01T10:54:58.194Z,6.90
2023-03-01T10:57:50.489Z,7.20
2023-03-01T11:00:52.355Z,7.30
2023-03-01T11:03:44.190Z,7.20
2023-03-01T11:06:38.328Z,7.10
2023-03-01T11:09:39.212Z,7.20
2023-03-01T11:12:30.959Z,7.10
2023-03-01T11:15:29.307Z,7.20
2023-03-01T11:21:12.303Z,7.10
2023-03-01T11:24:07.047Z,7.00
2023-03-01T11:27:00.579Z,6.90
2023-03-01T11:29:59.237Z,6.90
2023-03-01T11:32:54.328Z,6.90
2023-03-01T11:35:55.529Z,6.70
2023-03-01T11:38:48.783Z,6.70
2023-03-01T11:41:43.505Z,6.80
2023-03-01T11:44:37.690Z,6.80
2023-03-01T11:47:38.603Z,6.60
2023-03-01T11:50:35.897Z,6.50
2023-03-01T11:53:41.406Z,6.50
2023-03-01T11:56:36.619Z,6.60
2023-03-01T12:00:05.845Z,6.70
2023-03-01T12:03:43.731Z,6.40
2023-03-01T12:06:43.852Z,6.20
2023-03-01T12:09:52.316Z,5.90
2023-03-01T12:12:47.907Z,5.90
2023-03-01T12:15:49.864Z,6.00
2023-03-01T12:18:59.124Z,5.90
2023-03-01T12:21:59.163Z,5.80
2023-03-01T12:25:17.525Z,5.80
2023-03-01T12:28:48.208Z,5.70
2023-03-01T12:32:19.365Z,5.80
2023-03-01T12:35:25.561Z,5.80
2023-03-01T12:38:36.436Z,5.60
2023-03-01T12:41:52.213Z,5.80
2023-03-01T12:47:46.289Z,6.30
2023-03-01T12:50:44.830Z,6.00
2023-03-01T12:53:40.311Z,6.20
2023-03-01T12:59:37.693Z,6.40
2023-03-01T13:02:37.203Z,6.40
2023-03-01T13:05:35.418Z,6.40
2023-03-01T13:08:35.250Z,6.40
2023-03-01T13:11:27.886Z,6.40
2023-03-01T13:14:56.964Z,6.30
2023-03-01T13:17:49.086Z,6.40
2023-03-01T13:20:51.364Z,6.40
2023-03-01T13:23:43.677Z,6.40
2023-03-01T13:26:38.321Z,6.60
2023-03-01T13:29:32.603Z,6.50
2023-03-01T13:32:34.616Z,6.70
2023-03-01T13:35:47.432Z,6.50
2023-03-01T13:38:50.809Z,6.50
2023-03-01T13:41:54.482Z,6.80
2023-03-01T13:44:47.201Z,6.90
2023-03-01T13:47:41.052Z,6.80
2023-03-01T13:50:42.733Z,6.90
2023-03-01T13:53:38.333Z,6.60
2023-03-01T13:56:32.941Z,6.50
2023-03-01T14:02:14.682Z,6.30
2023-03-01T14:05:08.522Z,6.30
2023-03-01T14:08:00.028Z,6.30
2023-03-01T14:11:20.223Z,6.50
2023-03-01T14:14:39.631Z,6.40
2023-03-01T14:18:06.993Z,6.30
2023-03-01T14:20:59.778Z,6.30
2023-03-01T14:27:16.228Z,6.10
2023-03-01T14:30:23.943Z,6.00
2023-03-01T14:33:42.512Z,6.10
2023-03-01T14:36:36.199Z,6.10
2023-03-01T14:39:50.105Z,5.90
2023-03-01T14:42:43.249Z,6.10
2023-03-01T14:45:35.239Z,6.10
2023-03-01T14:48:30.749Z,6.10
2023-03-01T14:51:24.012Z,6.20
2023-03-01T14:54:36.073Z,6.30
2023-03-01T14:57:26.129Z,6.80
2023-03-01T15:00:22.384Z,6.70
2023-03-01T15:03:17.727Z,6.40
2023-03-01T15:06:11.179Z,6.20
2023-03-01T15:09:02.902Z,6.00
2023-03-01T15:11:54.459Z,5.80
2023-03-01T15:15:01.451Z,5.60
2023-03-01T15:17:45.015Z,5.40
2023-03-01T15:20:39.993Z,5.40
2023-03-01T15:23:33.358Z,5.40
2023-03-01T15:26:32.539Z,5.40
2023-03-01T15:29:28.096Z,5.20
2023-03-01T15:32:31.544Z,5.20
2023-03-01T15:35:44.018Z,5.30
2023-03-01T15:38:41.782Z,5.30
2023-03-01T15:44:41.649Z,5.40
2023-03-01T15:47:26.815Z,5.60
2023-03-01T15:50:22.190Z,6.00
2023-03-01T15:53:17.346Z,5.90
2023-03-01T15:56:11.025Z,6.00
2023-03-01T15:59:04.664Z,6.10
2023-03-01T16:01:56.582Z,6.50
2023-03-01T16:04:48.113Z,6.30
2023-03-01T16:07:53.811Z,6.40
2023-03-01T16:10:52.682Z,6.10
2023-03-01T16:13:44.454Z,5.90
2023-03-01T16:16:36.784Z,5.80
2023-03-01T16:19:28.165Z,5.40
2023-03-01T16:22:21.475Z,5.30
2023-03-01T16:25:14.588Z,5.10
2023-03-01T16:28:08.670Z,4.90
2023-03-01T16:31:02.859Z,4.70
2023-03-01T16:33:57.242Z,4.50
2023-03-01T16:36:51.583Z,4.40
2023-03-01T16:39:43.256Z,4.40
2023-03-01T16:42:40.515Z,4.30
2023-03-01T16:45:33.926Z,4.20
2023-03-01T16:51:10.280Z,4.20
2023-03-01T16:54:01.909Z,4.20
2023-03-01T16:56:53.128Z,4.10
2023-03-01T16:59:44.812Z,4.10
2023-03-01T17:02:36.892Z,4.10
2023-03-01T17:05:28.115Z,4.10
2023-03-01T17:08:24.789Z,4.00
2023-03-01T17:11:18.054Z,4.00
2023-03-01T17:14:10.699Z,4.00
2023-03-01T17:19:54.667Z,4.00
2023-03-01T17:22:49.139Z,3.90
2023-03-01T17:25:45.750Z,3.90
2023-03-01T17:28:39.008Z,3.90
2023-03-01T17:31:30.675Z,3.90
2023-03-01T17:34:22.341Z,3.90
2023-03-01T17:37:14.225Z,3.90
2023-03-01T17:40:06.756Z,3.80
2023-03-01T17:42:58.696Z,3.80
2023-03-01T17:45:51.817Z,3.90
2023-03-01T17:51:23.736Z,3.90
2023-03-01T17:54:15.330Z,3.90
2023-03-01T17:57:21.993Z,3.90
2023-03-01T18:00:16.444Z,3.90
2023-03-01T18:03:08.284Z,3.90
2023-03-01T18:05:59.641Z,4.00
2023-03-01T18:08:55.862Z,3.90
2023-03-01T18:11:47.995Z,3.90
2023-03-01T18:14:40.412Z,3.90
2023-03-01T18:17:32.020Z,3.90
2023-03-01T18:20:24.065Z,3.90
2023-03-01T18:23:16.113Z,4.00
2023-03-01T18:26:09.427Z,3.90
2023-03-01T18:29:02.664Z,3.90
2023-03-01T18:31:54.076Z,3.90
2023-03-01T18:34:45.696Z,3.90
2023-03-01T18:37:37.704Z,3.90
2023-03-01T18:40:30.068Z,3.90
2023-03-01T18:43:22.310Z,3.80
2023-03-01T18:46:13.548Z,3.80
2023-03-01T18:49:05.332Z,3.80
2023-03-01T18:54:38.144Z,3.80
2023-03-01T18:57:30.064Z,3.80
2023-03-01T19:00:24.608Z,3.80
2023-03-01T19:03:16.151Z,3.80
2023-03-01T19:06:08.355Z,3.80
2023-03-01T19:09:01.238Z,3.90
2023-03-01T19:11:53.042Z,3.90
2023-03-01T19:14:44.720Z,3.80
2023-03-01T19:17:36.449Z,3.80
2023-03-01T19:20:31.735Z,3.90
2023-03-01T19:23:23.775Z,3.90
2023-03-01T19:26:17.501Z,3.80
2023-03-01T19:31:48.571Z,3.80
2023-03-01T19:34:41.506Z,3.80
2023-03-01T19:37:34.093Z,3.80
2023-03-01T19:40:25.398Z,3.80
2023-03-01T19:43:16.796Z,3.90
2023-03-01T19:46:08.546Z,3.90
2023-03-01T19:49:01.539Z,3.90
2023-03-01T19:51:53.091Z,3.90
2023-03-01T19:54:44.861Z,3.90
2023-03-01T19:57:38.806Z,3.90
2023-03-01T20:00:40.841Z,3.80
2023-03-01T20:03:34.978Z,3.90
2023-03-01T20:06:26.421Z,3.90
2023-03-01T20:09:21.805Z,4.00
2023-03-01T20:12:13.425Z,4.00
2023-03-01T20:15:05.921Z,3.90
2023-03-01T20:17:57.486Z,3.90
2023-03-01T20:20:52.818Z,4.00
2023-03-01T20:23:44.467Z,3.90
2023-03-01T20:26:36.825Z,4.00
2023-03-01T20:29:28.041Z,4.00
2023-03-01T20:32:19.545Z,4.00
2023-03-01T20:35:12.986Z,4.10
2023-03-01T20:38:04.663Z,4.10
2023-03-01T20:41:01.607Z,4.10
2023-03-01T20:43:56.562Z,4.10
2023-03-01T20:46:48.173Z,4.10
2023-03-01T20:49:39.893Z,4.10
2023-03-01T20:52:42.229Z,4.20
2023-03-01T20:55:27.167Z,4.30
2023-03-01T20:58:18.262Z,4.50
2023-03-01T21:01:11.046Z,4.50
2023-03-01T21:04:02.805Z,4.40
2023-03-01T21:06:54.262Z,4.50
2023-03-01T21:09:45.953Z,4.50
2023-03-01T21:12:37.380Z,4.50
2023-03-01T21:15:29.794Z,4.50
2023-03-01T21:18:21.170Z,4.50
2023-03-01T21:21:14.822Z,4.50
2023-03-01T21:24:09.213Z,4.50
2023-03-01T21:27:02.502Z,4.50
2023-03-01T21:30:01.083Z,4.50
2023-03-01T21:32:54.200Z,4.50
2023-03-01T21:35:45.962Z,4.50
2023-03-01T21:38:39.133Z,4.50
2023-03-01T21:41:32.476Z,4.50
2023-03-01T21:44:24.429Z,4.50
2023-03-01T21:47:16.127Z,4.50
2023-03-01T21:50:09.721Z,4.50
2023-03-01T21:53:02.898Z,4.50
2023-03-01T21:55:54.148Z,4.50
2023-03-01T21:58:45.338Z,4.60
2023-03-01T22:01:38.033Z,4.70
2023-03-01T22:04:29.233Z,4.60
2023-03-01T22:07:20.671Z,4.60
2023-03-01T22:10:14.192Z,4.50
2023-03-01T22:13:05.529Z,4.50
2023-03-01T22:15:57.216Z,4.50
2023-03-01T22:18:49.218Z,4.60
2023-03-01T22:21:43.487Z,4.50
2023-03-01T22:24:37.662Z,4.50
2023-03-01T22:27:30.605Z,4.40
2023-03-01T22:30:22.216Z,4.40
2023-03-01T22:33:13.440Z,4.40
2023-03-01T22:36:05.429Z,4.40
2023-03-01T22:39:00.245Z,4.40
2023-03-01T22:41:52.390Z,4.50
2023-03-01T22:44:53.945Z,4.60
2023-03-01T22:47:45.927Z,4.70
2023-03-01T22:50:37.918Z,4.70
2023-03-01T22:53:29.423Z,4.70
2023-03-01T22:56:22.960Z,4.70
2023-03-01T22:59:16.805Z,4.60
2023-03-01T23:02:08.643Z,4.60
2023-03-01T23:05:00.322Z,4.60
2023-03-01T23:07:52.060Z,4.60
2023-03-01T23:10:44.268Z,4.60
2023-03-01T23:13:35.438Z,4.60
2023-03-01T23:16:27.345Z,4.60
2023-03-01T23:19:18.976Z,4.60
2023-03-01T23:22:10.365Z,4.60
2023-03-01T23:25:02.704Z,4.70
2023-03-01T23:27:54.492Z,4.70
2023-03-01T23:30:47.444Z,4.70
2023-03-01T23:33:39.942Z,4.70
2023-03-01T23:36:34.023Z,4.70
2023-03-01T23:39:25.411Z,4.70
2023-03-01T23:42:16.520Z,4.70
2023-03-01T23:45:10.066Z,4.70
2023-03-01T23:48:01.272Z,4.70
2023-03-01T23:50:58.870Z,4.70
2023-03-01T23:53:57.863Z,4.80
2023-03-01T23:56:48.940Z,4.70
2023-03-01T23:59:41.146Z,4.70
